Time;durP1;ratioP1;P1;durP2;ratioP2;P2;SDS_P1;SDS_P2;PMS_P1;PMS_P2;Temp;Humidity;BMP_temperature;BMP_pressure;BME280_temperature;BME280_humidity;BME280_pressure;Samples;Min_cycle;Max_cycle;Signal;HPM_P1;HPM_P2
2022/08/05 00:01:21;;;;;;;9.73;2.17;;;;;;;-144.47;40.16;52921.63;5092632;28;20392;-70
2022/08/05 00:03:47;;;;;;;8.63;2.72;;;;;;;-144.47;40.39;52947.47;5092958;28;20452;-67
2022/08/05 00:06:13;;;;;;;10.30;2.55;;;;;;;-144.47;40.83;52963.34;5091660;28;20035;-66
2022/08/05 00:08:40;;;;;;;5.50;2.47;;;;;;;-144.47;40.99;52945.47;5091998;28;20632;-70
2022/08/05 00:11:11;;;;;;;9.77;2.42;;;;;;;-144.47;41.28;52951.44;5093018;28;20043;-71
2022/08/05 00:13:38;;;;;;;4.68;2.38;;;;;;;-144.47;41.70;52965.34;5091093;28;20039;-67
2022/08/05 00:16:05;;;;;;;8.65;2.28;;;;;;;-144.47;42.15;52991.16;5092572;28;20074;-69
2022/08/05 00:18:30;;;;;;;5.00;2.30;;;;;;;-144.47;42.13;52955.41;5073378;28;20138;-70
2022/08/05 00:20:56;;;;;;;15.23;2.78;;;;;;;-144.47;42.27;52991.16;5092653;28;20546;-71
2022/08/05 00:23:21;;;;;;;10.23;2.95;;;;;;;-144.47;42.66;52991.16;5091729;28;20027;-68
2022/08/05 00:25:47;;;;;;;9.30;2.97;;;;;;;-144.47;43.22;52955.41;5092886;28;20491;-66
2022/08/05 00:28:13;;;;;;;6.40;2.35;;;;;;;-144.47;43.16;52975.25;5092293;28;20481;-68
2022/08/05 00:30:39;;;;;;;15.45;2.90;;;;;;;-144.47;43.33;52985.19;5092646;28;20019;-67
2022/08/05 00:33:04;;;;;;;13.73;2.88;;;;;;;-144.47;43.49;52967.31;5097221;28;20354;-70
2022/08/05 00:35:30;;;;;;;9.63;2.80;;;;;;;-144.47;43.55;52975.25;5099209;28;20146;-70
2022/08/05 00:37:55;;;;;;;7.88;2.53;;;;;;;-144.47;43.46;52967.31;5072273;28;20388;-69
2022/08/05 00:40:23;;;;;;;12.82;3.20;;;;;;;-144.47;43.56;52989.16;5092074;28;20035;-69
2022/08/05 00:42:49;;;;;;;6.03;2.42;;;;;;;-144.47;43.61;52949.44;5092060;28;20028;-71
2022/08/05 00:45:14;;;;;;;7.53;2.60;;;;;;;-144.47;43.85;52987.19;5073975;28;20094;-66
2022/08/05 00:47:39;;;;;;;18.92;2.58;;;;;;;-144.47;43.94;52955.41;5090785;28;20027;-67
2022/08/05 00:50:06;;;;;;;11.70;2.30;;;;;;;-144.47;44.05;52943.47;5092310;28;20030;-71
2022/08/05 00:52:31;;;;;;;6.55;2.65;;;;;;;-144.47;44.28;52967.31;5091098;28;20097;-69
2022/08/05 00:54:57;;;;;;;7.22;2.88;;;;;;;-144.47;44.41;52999.09;5081864;28;20070;-67
2022/08/05 00:57:22;;;;;;;11.38;3.15;;;;;;;-144.47;44.73;52969.31;5090202;28;20148;-66
2022/08/05 00:59:48;;;;;;;4.93;2.30;;;;;;;-144.47;44.94;53018.97;5092042;28;20099;-68
2022/08/05 01:02:13;;;;;;;14.73;2.78;;;;;;;-144.47;45.16;52969.31;5091674;28;20044;-66
2022/08/05 01:04:38;;;;;;;18.55;4.28;;;;;;;-144.47;45.39;53011.00;5091908;28;20013;-70
2022/08/05 01:07:04;;;;;;;10.90;3.05;;;;;;;-144.47;45.78;52975.25;5088674;28;20020;-68
2022/08/05 01:09:30;;;;;;;8.05;3.25;;;;;;;-144.47;46.08;53022.94;5090918;28;20042;-70
2022/08/05 01:12:01;;;;;;;11.18;4.18;;;;;;;-144.47;46.13;52997.09;5073681;28;20020;-71
2022/08/05 01:14:35;;;;;;;6.63;2.90;;;;;;;-144.47;46.32;53024.91;5072002;28;20016;-66
2022/08/05 01:17:09;;;;;;;7.63;2.80;;;;;;;-144.47;46.25;53003.06;5090940;28;20096;-69
2022/08/05 01:19:46;;;;;;;8.95;2.90;;;;;;;-144.47;46.47;53007.03;5091631;28;20062;-68
2022/08/05 01:22:56;;;;;;;14.20;3.22;;;;;;;-144.47;47.02;53022.94;5090142;28;20074;-69
2022/08/05 01:25:40;;;;;;;8.75;3.13;;;;;;;-144.47;47.30;53032.88;5028492;28;20045;-70
2022/08/05 01:28:27;;;;;;;7.53;2.97;;;;;;;-144.47;47.57;52983.22;5027823;28;20071;-67
2022/08/05 01:31:21;;;;;;;6.53;3.00;;;;;;;-144.47;47.74;52991.16;5074260;28;20035;-69
2022/08/05 01:34:06;;;;;;;10.23;3.08;;;;;;;-144.47;48.01;53005.06;5065329;28;20067;-69
2022/08/05 01:39:13;;;;;;;12.35;3.45;;;;;;;-144.47;48.21;53030.88;5088394;28;20603;-66
2022/08/05 01:41:41;;;;;;;18.63;3.47;;;;;;;-144.47;48.61;52967.31;5092346;28;20495;-67
2022/08/05 01:44:08;;;;;;;7.82;2.90;;;;;;;-144.47;48.71;53005.06;5092200;28;20019;-67
2022/08/05 01:46:34;;;;;;;9.52;3.13;;;;;;;-144.47;49.01;53018.97;5090996;28;20024;-68
2022/08/05 01:49:01;;;;;;;8.93;3.20;;;;;;;-144.47;49.11;52983.22;5091599;28;20020;-68
2022/08/05 01:51:30;;;;;;;10.68;3.05;;;;;;;-144.47;49.21;53022.94;5091667;28;20020;-65
2022/08/05 01:53:58;;;;;;;7.00;2.72;;;;;;;-144.47;49.24;53036.84;5070666;28;20024;-64
2022/08/05 01:56:28;;;;;;;10.13;2.70;;;;;;;-144.47;49.54;53020.94;5090895;28;20463;-65
2022/08/05 01:58:55;;;;;;;13.50;2.80;;;;;;;-144.47;49.84;53020.94;5091627;28;20020;-66
2022/08/05 02:01:22;;;;;;;14.45;4.00;;;;;;;-144.47;49.85;53013.00;5091590;28;20019;-67
2022/08/05 02:03:50;;;;;;;15.60;3.33;;;;;;;-144.47;50.00;53046.75;5091349;28;20024;-65
2022/08/05 02:06:16;;;;;;;10.68;3.15;;;;;;;-144.47;50.15;53016.97;5090803;28;20020;-66
2022/08/05 02:08:41;;;;;;;9.70;2.88;;;;;;;-144.47;50.25;53018.97;5089661;28;20085;-67
2022/08/05 02:11:09;;;;;;;12.98;3.40;;;;;;;-144.47;50.50;52993.13;5073000;28;20035;-65
2022/08/05 02:13:52;;;;;;;9.65;3.35;;;;;;;-144.47;50.96;53038.81;5091383;28;20022;-68
2022/08/05 02:16:31;;;;;;;8.57;2.60;;;;;;;-144.47;51.07;53020.94;5090397;28;20046;-65
2022/08/05 02:19:04;;;;;;;9.88;2.97;;;;;;;-144.47;51.00;53005.06;5091251;28;20039;-69
2022/08/05 02:21:35;;;;;;;6.82;2.85;;;;;;;-144.47;51.20;53058.69;5090058;28;20026;-67
2022/08/05 02:24:07;;;;;;;10.77;3.80;;;;;;;-144.47;51.40;53040.81;5082844;28;20019;-67
2022/08/05 02:26:49;;;;;;;16.13;3.38;;;;;;;-144.47;51.43;53046.75;5090933;28;20028;-68
2022/08/05 02:29:19;;;;;;;14.13;3.47;;;;;;;-144.47;51.58;53011.00;5091201;28;20031;-67
2022/08/05 02:31:47;;;;;;;13.73;3.05;;;;;;;-144.47;51.86;53042.78;5091002;28;20020;-69
2022/08/05 02:34:15;;;;;;;10.07;2.85;;;;;;;-144.47;52.01;53068.63;5102719;28;20511;-65
2022/08/05 02:36:49;;;;;;;13.48;3.53;;;;;;;-144.47;52.03;53032.88;5090313;28;20011;-68
2022/08/05 02:39:18;;;;;;;6.32;2.70;;;;;;;-144.47;52.15;53005.06;5089478;28;20028;-68
2022/08/05 02:41:45;;;;;;;8.15;2.90;;;;;;;-144.47;52.26;53018.97;5090774;28;20074;-68
2022/08/05 02:44:12;;;;;;;7.95;2.90;;;;;;;-144.47;52.30;53016.97;5090726;28;20020;-67
2022/08/05 02:46:43;;;;;;;8.98;2.92;;;;;;;-144.47;52.44;53048.75;5089957;28;20028;-66
2022/08/05 02:49:10;;;;;;;8.50;3.25;;;;;;;-144.47;52.43;53018.97;5090917;28;20019;-64
2022/08/05 02:51:37;;;;;;;8.73;2.97;;;;;;;-144.47;52.75;53030.88;5091245;28;20016;-68
2022/08/05 02:54:04;;;;;;;8.80;3.13;;;;;;;-144.47;52.72;53036.84;5087700;28;20052;-69
2022/08/05 02:56:31;;;;;;;34.03;7.43;;;;;;;-144.47;53.12;53024.91;5064945;28;20165;-66
2022/08/05 02:58:58;;;;;;;8.15;3.28;;;;;;;-144.47;52.81;53036.84;5090520;28;20058;-68
2022/08/05 03:01:24;;;;;;;9.55;3.65;;;;;;;-144.47;52.95;53036.84;5090792;28;20103;-65
2022/08/05 03:03:54;;;;;;;13.68;2.78;;;;;;;-144.47;53.09;53072.59;5090672;28;20018;-66
2022/08/05 03:06:20;;;;;;;16.05;3.53;;;;;;;-144.47;53.18;53011.00;5090063;28;20174;-69
2022/08/05 03:08:47;;;;;;;10.88;3.13;;;;;;;-144.47;53.42;53050.75;5089352;28;20353;-68
2022/08/05 03:11:17;;;;;;;11.63;2.97;;;;;;;-144.47;53.59;53074.56;5085005;28;20118;-64
2022/08/05 03:13:43;;;;;;;9.63;3.47;;;;;;;-144.47;53.71;53046.75;5090889;28;20024;-66
2022/08/05 03:16:08;;;;;;;12.63;3.17;;;;;;;-144.47;53.99;53052.72;5090252;28;20034;-68
2022/08/05 03:18:33;;;;;;;14.65;4.45;;;;;;;-144.47;54.02;53044.78;5089394;28;20016;-68
2022/08/05 03:20:59;;;;;;;6.53;3.20;;;;;;;-144.47;54.20;53016.97;5090084;28;20058;-68
2022/08/05 03:23:24;;;;;;;9.27;3.30;;;;;;;-144.47;54.43;53003.06;5089154;28;20102;-68
2022/08/05 03:25:50;;;;;;;9.70;3.10;;;;;;;-144.47;54.67;53040.81;5071459;28;20016;-66
2022/08/05 03:28:17;;;;;;;18.02;3.80;;;;;;;-144.47;54.94;53082.53;5089426;28;20481;-68
2022/08/05 03:30:43;;;;;;;5.57;2.97;;;;;;;-144.47;54.85;53064.66;5090277;28;20024;-66
2022/08/05 03:33:08;;;;;;;9.65;3.47;;;;;;;-144.47;54.99;53046.75;5095287;28;20034;-68
2022/08/05 03:35:34;;;;;;;6.93;2.65;;;;;;;-144.47;54.97;53070.59;5096279;28;20016;-64
2022/08/05 03:38:00;;;;;;;6.43;2.80;;;;;;;-144.47;55.24;53052.72;5088198;28;20489;-66
2022/08/05 03:40:25;;;;;;;13.80;3.63;;;;;;;-144.47;55.47;53068.63;5089263;28;20032;-69
2022/08/05 03:42:51;;;;;;;8.70;3.05;;;;;;;-144.47;55.79;53072.59;5089576;28;20020;-67
2022/08/05 03:45:17;;;;;;;10.13;3.40;;;;;;;-144.47;56.03;53056.69;5084417;28;20465;-68
2022/08/05 03:47:42;;;;;;;11.82;3.35;;;;;;;-144.47;55.95;53068.63;5088280;28;20078;-65
2022/08/05 03:50:09;;;;;;;15.18;3.42;;;;;;;-144.47;56.00;53040.81;5089580;28;20016;-67
2022/08/05 03:52:41;;;;;;;17.30;3.92;;;;;;;-144.47;55.96;53042.78;5070294;28;20035;-66
2022/08/05 03:55:10;;;;;;;14.30;3.50;;;;;;;-144.47;56.01;53038.81;5089347;28;20090;-67
2022/08/05 03:57:39;;;;;;;11.88;3.47;;;;;;;-144.47;55.73;53050.75;5088488;28;20027;-67
2022/08/05 04:00:08;;;;;;;13.32;3.88;;;;;;;-144.47;55.54;53052.72;5089337;28;20111;-68
2022/08/05 04:02:35;;;;;;;8.35;3.30;;;;;;;-144.47;55.76;53078.53;5089582;28;20031;-66
2022/08/05 04:05:03;;;;;;;18.92;4.50;;;;;;;-144.47;55.89;53054.72;5089567;28;20647;-68
2022/08/05 04:07:29;;;;;;;13.65;3.38;;;;;;;-144.47;56.04;53034.84;5087679;28;20048;-66
2022/08/05 04:09:55;;;;;;;7.95;3.17;;;;;;;-144.47;56.06;53080.53;5070721;28;20100;-65
2022/08/05 04:12:21;;;;;;;11.68;3.38;;;;;;;-144.47;56.07;53054.72;5089406;28;20035;-66
2022/08/05 04:14:47;;;;;;;6.50;3.45;;;;;;;-144.47;56.17;53054.72;5071446;28;20024;-68
2022/08/05 04:17:13;;;;;;;9.35;3.85;;;;;;;-144.47;56.19;53048.75;5088562;28;20019;-67
2022/08/05 04:19:44;;;;;;;13.85;3.92;;;;;;;-144.47;56.59;53042.78;5071015;28;20020;-69
2022/08/05 04:22:10;;;;;;;8.57;3.58;;;;;;;-144.47;56.41;53056.69;5082944;28;20496;-66
2022/08/05 04:24:40;;;;;;;8.25;3.38;;;;;;;-144.47;56.24;53068.63;5086696;28;20536;-68
2022/08/05 04:27:05;;;;;;;13.07;3.78;;;;;;;-144.47;56.50;53068.63;5088180;28;20024;-66
2022/08/05 04:29:31;;;;;;;13.93;3.25;;;;;;;-144.47;56.27;53056.69;5089273;28;20488;-68
2022/08/05 04:31:56;;;;;;;8.80;3.80;;;;;;;-144.47;56.13;53064.66;5088941;28;20028;-68
2022/08/05 04:34:21;;;;;;;10.57;3.70;;;;;;;-144.47;56.40;53040.81;5102465;28;20023;-67
2022/08/05 04:36:47;;;;;;;7.22;3.60;;;;;;;-144.47;56.31;53082.53;5088785;28;20044;-69
2022/08/05 04:39:12;;;;;;;14.10;4.07;;;;;;;-144.47;56.44;53040.81;5070693;28;20532;-68
2022/08/05 04:41:37;;;;;;;12.55;4.07;;;;;;;-144.47;56.57;53092.44;5089433;28;20523;-67
2022/08/05 04:44:03;;;;;;;10.80;3.45;;;;;;;-144.47;56.66;53074.56;5089031;28;20044;-67
2022/08/05 04:46:28;;;;;;;11.43;3.08;;;;;;;-144.47;56.10;53062.66;5092096;28;20051;-65
2022/08/05 04:48:54;;;;;;;21.92;3.70;;;;;;;-144.47;56.19;53058.69;5092569;28;20020;-66
2022/08/05 04:51:19;;;;;;;8.25;3.20;;;;;;;-144.47;55.91;53108.34;5093099;28;20031;-68
2022/08/05 04:53:47;;;;;;;10.23;3.70;;;;;;;-144.47;56.09;53056.69;5092199;28;20019;-64
2022/08/05 04:56:13;;;;;;;13.50;3.17;;;;;;;-144.47;56.04;53098.41;5074226;28;20020;-66
2022/08/05 04:58:39;;;;;;;9.55;2.85;;;;;;;-144.47;55.80;53054.72;5092230;28;20024;-68
2022/08/05 05:01:08;;;;;;;7.93;2.85;;;;;;;-144.47;55.88;53066.63;5095288;28;20150;-77
2022/08/05 05:03:34;;;;;;;9.93;2.78;;;;;;;-144.47;55.71;53088.47;5108160;28;20162;-67
2022/08/05 05:05:59;;;;;;;7.18;2.88;;;;;;;-144.47;55.64;53056.69;5074502;28;20028;-68
2022/08/05 05:08:24;;;;;;;11.85;3.95;;;;;;;-144.47;55.65;53024.91;5091043;28;20504;-65
2022/08/05 05:10:50;;;;;;;13.48;3.20;;;;;;;-144.47;55.53;53078.53;5074554;28;20417;-68
2022/08/05 05:13:16;;;;;;;8.63;2.65;;;;;;;-144.47;55.70;53056.69;5091830;28;20028;-68
2022/08/05 05:15:43;;;;;;;12.07;2.80;;;;;;;-144.47;55.95;53098.41;5092398;28;20020;-65
2022/08/05 05:18:13;;;;;;;15.23;3.03;;;;;;;-144.47;56.08;53076.56;5091983;28;20016;-67
2022/08/05 05:20:39;;;;;;;6.85;2.90;;;;;;;-144.47;56.09;53050.75;5074840;28;20034;-68
2022/08/05 05:23:04;;;;;;;9.10;2.90;;;;;;;-144.47;56.62;53072.59;5091816;28;20048;-67
2022/08/05 05:25:30;;;;;;;7.97;3.15;;;;;;;-144.47;57.06;53092.44;5073798;28;20425;-68
2022/08/05 05:27:56;;;;;;;12.63;3.10;;;;;;;-144.47;57.46;53084.50;5091101;28;20012;-68
2022/08/05 05:30:22;;;;;;;10.13;3.92;;;;;;;-144.47;58.10;53044.78;5091944;28;20019;-69
2022/08/05 05:32:47;;;;;;;9.15;3.63;;;;;;;-144.47;58.23;53090.47;5095766;28;20110;-68
2022/08/05 05:35:13;;;;;;;13.43;4.07;;;;;;;-144.47;58.90;53090.47;5101017;28;20047;-65
2022/08/05 05:37:53;;;;;;;9.93;3.40;;;;;;;-144.47;58.89;53086.50;5090212;28;20024;-66
2022/08/05 05:40:19;;;;;;;13.68;3.60;;;;;;;-144.47;59.04;53068.63;5092111;28;20417;-67
2022/08/05 05:42:46;;;;;;;16.05;3.92;;;;;;;-144.47;59.04;53076.56;5073723;28;20032;-66
2022/08/05 05:45:12;;;;;;;15.88;3.92;;;;;;;-144.47;58.89;53054.72;5087425;28;20024;-67
2022/08/05 05:47:38;;;;;;;14.27;3.58;;;;;;;-144.47;58.97;53094.44;5090993;28;20027;-68
2022/08/05 05:50:04;;;;;;;12.68;3.85;;;;;;;-144.47;58.93;53104.38;5074173;28;20024;-67
2022/08/05 05:52:30;;;;;;;8.88;3.85;;;;;;;-144.47;58.72;53082.53;5090661;28;20012;-68
2022/08/05 05:54:59;;;;;;;15.02;4.28;;;;;;;-144.47;58.18;53078.53;5091745;28;20469;-68
2022/08/05 05:57:24;;;;;;;10.07;3.65;;;;;;;-144.47;58.21;53080.53;5089807;28;20488;-66
2022/08/05 05:59:50;;;;;;;12.70;3.70;;;;;;;-144.47;57.77;53038.81;5091333;28;20024;-67
2022/08/05 06:02:15;;;;;;;12.60;3.60;;;;;;;-144.47;56.82;53118.28;5090945;28;20601;-68
2022/08/05 06:04:41;;;;;;;17.17;3.45;;;;;;;-144.47;56.47;53098.41;5091089;28;20012;-66
2022/08/05 06:07:06;;;;;;;25.60;4.10;;;;;;;-144.47;55.54;53011.00;5072086;28;20020;-65
2022/08/05 06:09:31;;;;;;;8.65;3.47;;;;;;;-144.47;55.57;53090.47;5073093;28;20370;-68
2022/08/05 06:11:57;;;;;;;9.13;3.03;;;;;;;-144.47;55.19;53062.66;5091598;28;20031;-67
2022/08/05 06:14:22;;;;;;;12.27;3.22;;;;;;;-144.47;55.13;53114.31;5091031;28;20031;-67
2022/08/05 06:16:47;;;;;;;11.05;3.58;;;;;;;-144.47;54.94;53096.41;5072551;28;20024;-68
2022/08/05 06:19:13;;;;;;;14.02;3.10;;;;;;;-144.47;54.89;53046.75;5090986;28;20031;-65
2022/08/05 06:21:38;;;;;;;9.60;3.65;;;;;;;-144.47;55.21;53062.66;5091440;28;20016;-69
2022/08/05 06:24:05;;;;;;;11.02;3.88;;;;;;;-144.47;55.62;53058.69;5090197;28;20020;-68
2022/08/05 06:26:30;;;;;;;9.93;3.58;;;;;;;-144.47;55.81;53034.84;5072044;28;20111;-65
2022/08/05 06:28:56;;;;;;;10.20;2.83;;;;;;;-144.47;55.65;53062.66;5090784;28;20095;-69
2022/08/05 06:31:21;;;;;;;8.07;3.17;;;;;;;-144.47;56.07;53048.75;5090713;28;20098;-67
2022/08/05 06:33:47;;;;;;;12.57;3.38;;;;;;;-144.47;56.12;53082.53;5081587;28;20024;-68
2022/08/05 06:36:12;;;;;;;11.10;3.67;;;;;;;-144.47;56.59;53066.63;5090283;28;20504;-66
2022/08/05 06:38:37;;;;;;;12.38;3.38;;;;;;;-144.47;56.17;53088.47;5090248;28;20028;-66
2022/08/05 06:41:04;;;;;;;11.27;2.78;;;;;;;-144.47;56.54;53046.75;5091623;28;20346;-71
2022/08/05 06:43:30;;;;;;;12.20;3.20;;;;;;;-144.47;56.69;53080.53;5090942;28;20024;-67
2022/08/05 06:45:55;;;;;;;14.77;3.45;;;;;;;-144.47;57.02;53082.53;5090627;28;20603;-68
2022/08/05 06:48:20;;;;;;;13.05;3.67;;;;;;;-144.47;56.76;53034.84;5089666;28;20106;-67
2022/08/05 06:50:45;;;;;;;11.48;3.38;;;;;;;-144.47;57.06;53036.84;5090826;28;20039;-67
2022/08/05 06:53:12;;;;;;;11.02;3.90;;;;;;;-144.47;56.52;53042.78;5090375;28;20032;-68
2022/08/05 06:55:38;;;;;;;12.93;3.83;;;;;;;-144.47;56.64;53052.72;5090234;28;20373;-69
2022/08/05 06:58:03;;;;;;;11.45;3.22;;;;;;;-144.47;56.88;53058.69;5089686;28;20031;-69
2022/08/05 07:00:30;;;;;;;9.05;3.63;;;;;;;-144.47;56.73;53046.75;5090440;28;20039;-68
2022/08/05 07:02:55;;;;;;;14.30;3.05;;;;;;;-144.47;56.68;53096.41;5090377;28;20027;-68
2022/08/05 07:05:20;;;;;;;7.95;3.25;;;;;;;-144.47;56.30;53082.53;5089632;28;20376;-66
2022/08/05 07:07:47;;;;;;;8.20;3.10;;;;;;;-144.47;56.53;53038.81;5070126;28;20139;-68
2022/08/05 07:10:13;;;;;;;9.95;3.53;;;;;;;-144.47;56.23;53068.63;5090225;28;20052;-67
2022/08/05 07:18:07;;;;;;;6.53;3.30;;;;;;;-144.47;55.04;53078.53;5073720;28;20051;-66
2022/08/05 07:20:32;;;;;;;11.82;3.60;;;;;;;-144.47;54.83;53030.88;5051552;28;20458;-66
2022/08/05 07:22:57;;;;;;;10.35;3.40;;;;;;;-144.47;55.01;53042.78;5050915;28;20024;-67
2022/08/05 07:25:23;;;;;;;11.07;4.10;;;;;;;-144.47;55.01;53040.81;5070941;28;20473;-67
2022/08/05 07:27:50;;;;;;;15.00;3.72;;;;;;;-144.47;55.66;53074.56;5070075;28;20081;-66
2022/08/05 07:30:15;;;;;;;9.82;3.65;;;;;;;-144.47;55.30;53074.56;5089490;28;20024;-67
2022/08/05 07:32:41;;;;;;;10.60;3.00;;;;;;;-144.47;55.25;53082.53;5091469;28;20018;-67
2022/08/05 07:35:08;;;;;;;7.82;3.20;;;;;;;-144.47;54.50;53042.78;5099297;28;20103;-65
2022/08/05 07:37:33;;;;;;;15.70;3.22;;;;;;;-144.47;54.62;53078.53;5087530;22;20020;-70
2022/08/05 07:39:58;;;;;;;10.45;3.40;;;;;;;-144.47;54.60;53054.72;5069283;28;20564;-68
2022/08/05 07:42:24;;;;;;;7.20;3.03;;;;;;;-144.47;54.33;53090.47;5069250;28;20502;-69
2022/08/05 07:44:49;;;;;;;11.40;3.60;;;;;;;-144.47;53.93;53064.66;5069423;28;20029;-69
2022/08/05 07:47:15;;;;;;;11.45;3.70;;;;;;;-144.47;53.68;53048.75;5068085;28;20021;-70
2022/08/05 07:49:40;;;;;;;15.48;3.67;;;;;;;-144.47;53.90;53034.84;5049786;28;20268;-68
2022/08/05 07:52:05;;;;;;;15.95;3.67;;;;;;;-144.47;53.57;53082.53;5051313;28;20035;-68
2022/08/05 07:54:31;;;;;;;11.65;3.40;;;;;;;-144.47;53.75;53076.56;5045817;28;20394;-70
2022/08/05 07:56:56;;;;;;;10.18;3.80;;;;;;;-144.47;54.15;53082.53;5059914;28;20024;-67
2022/08/05 07:59:22;;;;;;;8.65;3.58;;;;;;;-144.47;53.73;53080.53;5048451;28;20454;-70
2022/08/05 08:01:47;;;;;;;19.00;4.07;;;;;;;-144.47;53.56;53011.00;5038145;28;20017;-66
2022/08/05 08:04:12;;;;;;;9.05;3.55;;;;;;;-144.47;53.16;53058.69;5048708;28;20371;-68
2022/08/05 08:06:38;;;;;;;14.18;3.50;;;;;;;-144.47;53.14;53066.63;5047874;28;20028;-68
2022/08/05 08:09:03;;;;;;;10.32;3.13;;;;;;;-144.47;52.58;53048.75;5048136;28;20021;-67
2022/08/05 08:11:29;;;;;;;7.28;3.53;;;;;;;-144.47;52.73;53032.88;5049026;28;20190;-68
2022/08/05 08:13:54;;;;;;;12.80;4.05;;;;;;;-144.47;53.08;53020.94;5048792;28;20029;-69
2022/08/05 08:16:19;;;;;;;11.13;3.13;;;;;;;-144.47;53.24;53007.03;5047826;28;20024;-65
2022/08/05 08:18:45;;;;;;;14.20;3.50;;;;;;;-144.47;53.14;53066.63;5048599;28;20674;-66
2022/08/05 08:21:10;;;;;;;10.90;3.53;;;;;;;-144.47;52.95;53088.47;5052115;28;20100;-67
2022/08/05 08:23:36;;;;;;;12.43;4.15;;;;;;;-144.47;52.69;53062.66;5051736;28;20025;-67
2022/08/05 08:26:01;;;;;;;9.13;4.15;;;;;;;-144.47;52.56;53078.53;5052637;28;20494;-70
2022/08/05 08:28:27;;;;;;;12.95;3.72;;;;;;;-144.47;52.07;53050.75;5071822;28;20017;-69
2022/08/05 08:30:52;;;;;;;10.18;4.22;;;;;;;-144.47;51.47;53070.59;5072908;28;20028;-69
2022/08/05 08:33:18;;;;;;;10.73;3.78;;;;;;;-144.47;51.01;53090.47;5059131;28;20017;-68
2022/08/05 08:35:43;;;;;;;15.35;3.60;;;;;;;-144.47;51.29;53054.72;5048383;28;20009;-70
2022/08/05 08:38:08;;;;;;;10.95;3.67;;;;;;;-144.47;50.76;53066.63;5050523;28;20033;-67
2022/08/05 08:40:34;;;;;;;11.60;3.95;;;;;;;-144.47;51.14;53016.97;5053131;28;20508;-67
2022/08/05 08:43:00;;;;;;;16.52;3.83;;;;;;;-144.47;51.06;53052.72;5054414;28;20105;-67
2022/08/05 08:45:26;;;;;;;11.68;4.35;;;;;;;-144.47;50.83;53060.66;5071897;28;20470;-69
2022/08/05 08:47:53;;;;;;;12.82;4.45;;;;;;;-144.47;50.73;53058.69;5062860;28;20040;-69
2022/08/05 08:50:19;;;;;;;106.55;10.25;;;;;;;-144.47;50.94;53044.78;5052387;28;20489;-67
2022/08/05 08:52:52;;;;;;;82.63;11.82;;;;;;;-144.47;50.72;53056.69;5050058;28;20052;-69
2022/08/05 08:55:18;;;;;;;14.93;4.10;;;;;;;-144.47;51.27;53044.78;5051874;28;20465;-68
2022/08/05 08:57:45;;;;;;;7.25;3.17;;;;;;;-144.47;50.75;53003.06;5051406;28;20477;-68
2022/08/05 09:00:11;;;;;;;10.97;3.87;;;;;;;-144.47;50.87;53056.69;5050808;28;20021;-69
2022/08/05 09:02:37;;;;;;;14.27;4.43;;;;;;;-144.47;49.88;53086.50;5051567;28;20249;-71
2022/08/05 09:05:03;;;;;;;11.15;4.03;;;;;;;-144.47;49.55;53032.88;5051457;28;20017;-70
2022/08/05 09:07:28;;;;;;;7.63;3.38;;;;;;;-144.47;49.21;53036.84;5050364;28;20025;-67
2022/08/05 09:09:54;;;;;;;19.38;3.65;;;;;;;-144.47;49.13;53005.06;5051659;28;20037;-69
2022/08/05 09:12:19;;;;;;;33.78;4.40;;;;;;;-144.47;48.62;53009.03;5049532;28;20025;-67
2022/08/05 09:14:45;;;;;;;10.93;3.63;;;;;;;-144.47;47.77;52997.09;5052195;28;20516;-68
2022/08/05 09:17:14;;;;;;;11.40;4.13;;;;;;;-144.47;47.01;53034.84;5049566;28;20099;-69
2022/08/05 09:19:41;;;;;;;12.52;3.47;;;;;;;-144.47;46.35;53013.00;5049982;28;20092;-68
2022/08/05 09:22:07;;;;;;;12.85;3.92;;;;;;;-144.47;45.69;53050.75;5049536;28;20028;-68
2022/08/05 09:24:35;;;;;;;10.93;3.00;;;;;;;-144.47;45.33;53016.97;5051574;28;20028;-67
2022/08/05 09:27:01;;;;;;;;;;;;;;;-144.47;45.50;52987.19;5051791;28;20116;-68
2022/08/05 09:29:38;;;;;;;12.27;4.22;;;;;;;-144.47;45.16;53018.97;5051542;28;20008;-67
2022/08/05 09:32:05;;;;;;;12.65;4.60;;;;;;;-144.47;45.19;53024.91;5050595;28;20021;-70
2022/08/05 09:34:52;;;;;;;15.80;3.50;;;;;;;-144.47;44.96;53028.88;5051278;28;20028;-67
2022/08/05 09:37:19;;;;;;;16.45;3.30;;;;;;;-144.47;44.63;53009.03;5070230;28;20158;-68
2022/08/05 09:39:45;;;;;;;23.10;3.63;;;;;;;-144.47;44.71;53003.06;5058761;28;20033;-67
2022/08/05 09:42:14;;;;;;;58.90;4.55;;;;;;;-144.47;43.88;53024.91;5051348;28;20087;-68
2022/08/05 09:44:42;;;;;;;67.68;6.00;;;;;;;-144.47;43.98;53011.00;5071506;28;20028;-66
2022/08/05 09:47:08;;;;;;;15.82;4.20;;;;;;;-144.47;43.74;53005.06;5070689;28;20023;-69
2022/08/05 09:49:33;;;;;;;8.85;3.10;;;;;;;-144.47;43.44;53026.91;5071031;28;20472;-70
2022/08/05 09:52:35;;;;;;;182.45;9.90;;;;;;;-144.47;42.91;52993.13;5070735;28;20032;-71
2022/08/05 09:55:02;;;;;;;17.48;3.38;;;;;;;-144.47;42.75;52981.22;5057090;28;20037;-69
2022/08/05 09:57:31;;;;;;;7.40;2.85;;;;;;;-144.47;42.00;52989.16;5044472;28;20078;-68
2022/08/05 10:00:00;;;;;;;;;;;;;;;-144.47;42.20;52971.28;5071571;28;20024;-67
2022/08/05 10:02:33;;;;;;;13.60;2.53;;;;;;;-144.47;41.90;52983.22;5041342;28;19905;-68
2022/08/05 10:05:08;;;;;;;9.80;3.45;;;;;;;-144.47;41.72;52971.28;5051074;28;20108;-70
2022/08/05 10:07:57;;;;;;;14.18;3.13;;;;;;;-144.47;40.99;52971.28;5050004;28;20026;-68
2022/08/05 10:10:36;;;;;;;12.95;3.30;;;;;;;-144.47;41.77;52979.22;5050849;28;20506;-67
2022/08/05 10:13:02;;;;;;;9.88;2.95;;;;;;;-144.47;41.64;52987.19;5050603;28;20036;-68
2022/08/05 10:15:33;;;;;;;11.82;3.20;;;;;;;-144.47;41.14;52991.16;5050831;28;20103;-68
2022/08/05 10:18:03;;;;;;;6.55;2.88;;;;;;;-144.47;41.15;52991.16;5069112;28;20032;-67
2022/08/05 10:20:33;;;;;;;6.35;2.80;;;;;;;-144.47;41.03;52979.22;5070850;28;20038;-67
2022/08/05 10:22:59;;;;;;;18.92;3.10;;;;;;;-144.47;41.53;52981.22;5069934;28;20035;-67
2022/08/05 10:25:25;;;;;;;9.77;2.95;;;;;;;-144.47;41.63;53007.03;5054657;28;20025;-67
2022/08/05 10:27:52;;;;;;;5.15;2.58;;;;;;;-144.47;41.99;53009.03;5059332;28;20025;-70
2022/08/05 10:30:18;;;;;;;6.22;2.70;;;;;;;-144.47;42.35;53044.78;5050624;28;20540;-69
2022/08/05 10:32:45;;;;;;;8.75;3.22;;;;;;;-144.47;42.32;52953.41;5048402;28;20029;-68
2022/08/05 10:35:11;;;;;;;16.25;3.22;;;;;;;-144.47;43.40;53003.06;5023254;28;20028;-70
2022/08/05 10:37:37;;;;;;;11.70;3.38;;;;;;;-144.47;43.60;52959.38;5048498;28;20071;-70
2022/08/05 10:40:13;;;;;;;8.35;3.20;;;;;;;-144.47;43.10;52983.22;5050116;28;20104;-68
2022/08/05 10:42:44;;;;;;;13.27;3.47;;;;;;;-144.47;42.59;53013.00;5049546;28;20020;-69
2022/08/05 10:45:12;;;;;;;8.30;3.35;;;;;;;-144.47;42.27;53015.00;5051138;28;20017;-70
2022/08/05 10:47:43;;;;;;;;;;;;;;;-144.47;42.29;52973.28;5049603;28;20024;-68
2022/08/05 10:50:12;;;;;;;9.38;2.80;;;;;;;-144.47;41.72;52987.19;5031879;28;20354;-67
2022/08/05 10:52:40;;;;;;;13.35;3.05;;;;;;;-144.47;41.27;52981.22;5050467;28;20024;-65
2022/08/05 10:55:08;;;;;;;7.70;2.40;;;;;;;-144.47;41.12;52949.44;5032293;28;20028;-70
2022/08/05 10:57:34;;;;;;;;;;;;;;;-144.47;40.58;52987.19;5050223;28;20100;-70
2022/08/05 11:00:05;;;;;;;18.25;3.65;;;;;;;-144.47;41.40;52971.28;5049791;28;20442;-69
2022/08/05 11:02:31;;;;;;;7.50;3.30;;;;;;;-144.47;41.73;52973.28;5049035;28;20328;-69
2022/08/05 11:04:56;;;;;;;7.18;3.08;;;;;;;-144.47;42.02;53030.88;5049443;28;20028;-68
2022/08/05 11:07:23;;;;;;;10.10;3.05;;;;;;;-144.47;42.02;52981.22;5048556;28;20568;-70
2022/08/05 11:09:51;;;;;;;9.45;4.15;;;;;;;-144.47;41.74;52991.16;5049881;28;20356;-67
2022/08/05 11:12:38;;;;;;;6.72;3.20;;;;;;;-144.47;41.56;53020.94;5049975;28;20029;-71
2022/08/05 11:15:20;;;;;;;17.42;3.60;;;;;;;-144.47;41.40;52987.19;5039832;28;20059;-69
2022/08/05 11:18:13;;;;;;;11.77;3.63;;;;;;;-144.47;41.86;53013.00;5048798;28;20049;-70
2022/08/05 11:20:44;;;;;;;13.30;3.38;;;;;;;-144.47;41.90;53003.06;5070073;28;20048;-70
2022/08/05 11:23:31;;;;;;;12.18;3.45;;;;;;;-144.47;41.54;53009.03;5052421;28;20373;-71
2022/08/05 11:26:15;;;;;;;14.70;3.05;;;;;;;-144.47;41.80;52979.22;5049460;28;20431;-71